createdAt,value
2023-11-02T00:03:58.541Z,3.33
2023-11-02T00:09:07.024Z,2.20
2023-11-02T00:14:09.380Z,2.92
2023-11-02T00:19:19.522Z,2.97
2023-11-02T00:24:21.878Z,2.47
2023-11-02T00:29:24.504Z,2.65
2023-11-02T00:34:30.379Z,1.80
2023-11-02T00:39:32.626Z,1.90
2023-11-02T00:44:35.013Z,2.10
2023-11-02T00:49:37.378Z,2.58
2023-11-02T00:54:46.303Z,1.98
2023-11-02T00:59:48.708Z,1.88
2023-11-02T01:04:56.080Z,1.50
2023-11-02T01:10:00.101Z,1.98
2023-11-02T01:15:04.454Z,1.63
2023-11-02T01:20:11.892Z,2.67
2023-11-02T01:30:19.522Z,2.15
2023-11-02T01:35:54.389Z,2.38
2023-11-02T01:41:05.130Z,1.48
2023-11-02T01:46:10.953Z,1.38
2023-11-02T01:51:18.807Z,2.42
2023-11-02T01:56:23.908Z,1.95
2023-11-02T02:01:31.942Z,1.92
2023-11-02T02:06:35.385Z,1.85
2023-11-02T02:11:46.756Z,1.60
2023-11-02T02:16:59.860Z,1.45
2023-11-02T02:22:06.563Z,1.65
2023-11-02T02:27:18.463Z,1.75
2023-11-02T02:32:39.276Z,1.90
2023-11-02T02:37:48.093Z,1.23
2023-11-02T02:42:51.581Z,2.17
2023-11-02T02:47:55.373Z,1.67
2023-11-02T02:53:01.666Z,1.30
2023-11-02T02:58:05.955Z,1.52
2023-11-02T03:03:08.669Z,1.33
2023-11-02T03:08:11.448Z,1.25
2023-11-02T03:13:14.558Z,1.92
2023-11-02T03:18:17.482Z,1.05
2023-11-02T03:23:22.461Z,1.73
2023-11-02T03:28:45.222Z,2.00
2023-11-02T03:34:02.627Z,1.88
2023-11-02T03:39:13.323Z,1.85
2023-11-02T03:44:29.890Z,1.27
2023-11-02T03:49:33.604Z,1.48
2023-11-02T03:54:41.993Z,1.75
2023-11-02T03:59:50.632Z,2.00
2023-11-02T04:05:00.641Z,1.45
2023-11-02T04:10:08.488Z,2.47
2023-11-02T04:15:11.832Z,2.15
2023-11-02T04:20:16.114Z,1.67
2023-11-02T04:25:18.489Z,2.40
2023-11-02T04:30:21.796Z,2.40
2023-11-02T04:35:24.244Z,1.63
2023-11-02T04:40:26.641Z,2.42
2023-11-02T04:45:29.413Z,1.65
2023-11-02T04:50:32.371Z,1.98
2023-11-02T04:55:34.621Z,2.00
2023-11-02T05:00:36.931Z,1.90
2023-11-02T05:05:39.266Z,1.70
2023-11-02T05:10:41.608Z,2.50
2023-11-02T05:15:55.740Z,1.23
2023-11-02T05:21:01.379Z,1.23
2023-11-02T05:26:03.985Z,1.60
2023-11-02T05:31:06.481Z,1.45
2023-11-02T05:36:08.939Z,1.98
2023-11-02T05:41:11.131Z,2.53
2023-11-02T05:46:13.402Z,1.75
2023-11-02T05:51:15.824Z,1.65
2023-11-02T05:56:18.034Z,1.67
2023-11-02T06:01:20.264Z,2.33
2023-11-02T06:06:22.584Z,2.65
2023-11-02T06:11:25.214Z,2.40
2023-11-02T06:16:27.574Z,2.45
2023-11-02T06:21:29.931Z,2.60
2023-11-02T06:26:32.190Z,3.55
2023-11-02T06:31:34.465Z,4.25
2023-11-02T06:36:36.779Z,6.60
2023-11-02T06:41:39.013Z,11.25
2023-11-02T06:46:41.222Z,11.40
2023-11-02T06:51:43.492Z,12.27
2023-11-02T06:56:46.143Z,14.05
2023-11-02T07:01:51.747Z,12.38
2023-11-02T07:06:54.022Z,10.57
2023-11-02T07:11:56.276Z,8.32
2023-11-02T07:16:58.492Z,9.63
2023-11-02T07:22:01.152Z,7.32
2023-11-02T07:27:03.504Z,10.52
2023-11-02T07:32:06.274Z,8.00
2023-11-02T07:37:08.616Z,7.25
2023-11-02T07:42:11.120Z,6.65
2023-11-02T07:47:13.542Z,6.47
2023-11-02T07:52:15.879Z,7.05
2023-11-02T07:57:19.502Z,6.25
2023-11-02T08:02:22.009Z,6.50
2023-11-02T08:07:24.253Z,6.43
2023-11-02T08:12:27.425Z,6.28
2023-11-02T08:17:29.882Z,5.32
2023-11-02T08:22:32.156Z,6.43
2023-11-02T08:27:35.205Z,7.43
2023-11-02T08:32:38.089Z,6.38
2023-11-02T08:37:40.527Z,7.60
2023-11-02T08:42:43.179Z,8.02
2023-11-02T08:47:45.675Z,6.35
2023-11-02T08:52:48.121Z,7.00
2023-11-02T08:57:50.468Z,7.78
2023-11-02T09:02:53.058Z,7.45
2023-11-02T09:07:55.375Z,6.90
2023-11-02T09:12:58.190Z,8.55
2023-11-02T09:18:00.579Z,6.22
2023-11-02T09:23:02.875Z,7.45
2023-11-02T09:28:05.359Z,6.53
2023-11-02T09:33:07.650Z,7.03
2023-11-02T09:38:09.903Z,8.30
2023-11-02T09:43:12.883Z,8.80
2023-11-02T09:48:15.285Z,9.10
2023-11-02T09:53:17.676Z,6.68
2023-11-02T09:58:21.555Z,7.03
2023-11-02T10:03:24.003Z,7.70
2023-11-02T10:08:26.262Z,7.53
2023-11-02T10:13:28.463Z,8.15
2023-11-02T10:18:30.808Z,7.68
2023-11-02T10:23:49.559Z,8.70
2023-11-02T10:28:55.507Z,8.95
2023-11-02T10:34:00.049Z,7.20
2023-11-02T10:39:02.788Z,8.43
2023-11-02T10:44:08.353Z,7.70
2023-11-02T10:49:13.018Z,7.85
2023-11-02T10:54:33.928Z,7.22
2023-11-02T10:59:36.981Z,7.90
2023-11-02T11:04:43.267Z,7.30
2023-11-02T11:10:05.017Z,8.05
2023-11-02T11:15:09.168Z,8.35
2023-11-02T11:20:12.090Z,9.23
2023-11-02T11:25:15.566Z,8.55
2023-11-02T11:30:21.786Z,8.27
2023-11-02T11:35:24.745Z,8.02
2023-11-02T11:40:32.064Z,7.72
2023-11-02T11:45:34.795Z,7.75
2023-11-02T11:50:38.402Z,7.78
2023-11-02T11:55:41.184Z,8.40
2023-11-02T12:00:49.828Z,7.97
2023-11-02T12:05:54.803Z,7.47
2023-11-02T12:10:59.144Z,7.03
2023-11-02T12:16:03.067Z,6.20
2023-11-02T12:21:12.464Z,7.03
2023-11-02T12:26:15.174Z,8.07
2023-11-02T12:31:28.452Z,8.98
2023-11-02T12:36:31.094Z,9.43
2023-11-02T12:41:33.622Z,8.00
2023-11-02T12:46:43.391Z,7.68
2023-11-02T12:51:47.259Z,12.45
2023-11-02T12:56:55.959Z,9.68
2023-11-02T13:02:03.374Z,10.68
2023-11-02T13:07:20.579Z,8.93
2023-11-02T13:12:42.930Z,8.98
2023-11-02T13:17:46.320Z,13.93
2023-11-02T13:22:50.799Z,11.60
2023-11-02T13:27:54.596Z,11.48
2023-11-02T13:32:58.860Z,11.38
2023-11-02T13:38:02.252Z,13.77
2023-11-02T13:43:04.530Z,12.23
2023-11-02T13:48:06.710Z,11.43
2023-11-02T13:53:09.465Z,11.10
2023-11-02T13:58:14.838Z,13.88
2023-11-02T14:03:20.798Z,13.80
2023-11-02T14:08:23.210Z,13.00
2023-11-02T14:13:25.591Z,12.88
2023-11-02T14:18:28.464Z,14.63
2023-11-02T14:23:30.901Z,15.02
2023-11-02T14:28:35.440Z,13.02
2023-11-02T14:33:37.861Z,13.63
2023-11-02T14:38:40.525Z,13.90
2023-11-02T14:44:32.006Z,13.57
2023-11-02T14:49:38.043Z,14.20
2023-11-02T14:54:49.737Z,13.50
2023-11-02T14:59:58.227Z,16.00
2023-11-02T15:05:00.678Z,17.60
2023-11-02T15:10:03.148Z,15.00
2023-11-02T15:15:06.803Z,17.45
2023-11-02T15:20:10.226Z,15.52
2023-11-02T15:25:12.607Z,16.15
2023-11-02T15:30:16.847Z,16.10
2023-11-02T15:35:19.204Z,15.50
2023-11-02T15:40:21.433Z,14.73
2023-11-02T15:45:24.442Z,14.40
2023-11-02T15:50:26.695Z,14.93
2023-11-02T15:55:28.963Z,14.70
2023-11-02T16:00:31.256Z,14.35
2023-11-02T16:05:35.100Z,16.45
2023-11-02T16:10:40.564Z,13.68
2023-11-02T16:15:47.956Z,13.38
2023-11-02T16:20:50.740Z,12.63
2023-11-02T16:25:53.007Z,13.57
2023-11-02T16:30:55.519Z,12.57
2023-11-02T16:35:59.011Z,12.32
2023-11-02T16:41:02.044Z,11.55
2023-11-02T16:46:06.455Z,10.00
2023-11-02T16:51:09.493Z,8.88
2023-11-02T16:56:12.336Z,7.68
2023-11-02T17:01:15.944Z,8.95
2023-11-02T17:06:18.385Z,8.82
2023-11-02T17:11:22.498Z,10.13
2023-11-02T17:16:27.297Z,9.55
2023-11-02T17:21:29.745Z,9.65
2023-11-02T17:26:32.087Z,8.38
2023-11-02T17:31:34.443Z,7.80
2023-11-02T17:36:36.792Z,8.13
2023-11-02T17:41:40.390Z,8.95
2023-11-02T17:46:42.894Z,9.30
2023-11-02T17:51:45.261Z,8.43
2023-11-02T17:56:48.340Z,8.45
2023-11-02T18:01:50.773Z,8.85
2023-11-02T18:06:53.865Z,7.82
2023-11-02T18:11:57.601Z,9.60
2023-11-02T18:16:59.900Z,9.35
2023-11-02T18:22:03.168Z,10.43
2023-11-02T18:27:08.492Z,11.38
2023-11-02T18:32:13.785Z,10.70
2023-11-02T18:37:16.105Z,11.32
2023-11-02T18:42:19.110Z,12.48
2023-11-02T18:47:23.138Z,11.45
2023-11-02T18:52:25.709Z,11.75
2023-11-02T18:57:28.781Z,11.82
2023-11-02T19:02:33.296Z,9.77
2023-11-02T19:07:36.343Z,11.52
2023-11-02T19:12:39.597Z,10.65
2023-11-02T19:17:44.383Z,11.00
2023-11-02T19:22:46.974Z,11.80
2023-11-02T19:27:49.393Z,9.68
2023-11-02T19:32:53.507Z,9.95
2023-11-02T19:37:57.115Z,9.00
2023-11-02T19:42:59.954Z,9.02
2023-11-02T19:48:02.431Z,9.20
2023-11-02T19:53:04.716Z,8.75
2023-11-02T19:58:07.040Z,8.65
2023-11-02T20:03:09.818Z,8.25
2023-11-02T20:08:12.126Z,7.88
2023-11-02T20:13:14.536Z,8.20
2023-11-02T20:18:16.840Z,8.18
2023-11-02T20:23:20.108Z,7.88
2023-11-02T20:28:22.693Z,7.90
2023-11-02T20:33:25.117Z,7.82
2023-11-02T20:38:27.394Z,8.70
2023-11-02T20:43:29.775Z,7.40
2023-11-02T20:48:35.619Z,7.45
2023-11-02T20:53:38.681Z,6.95
2023-11-02T20:58:40.961Z,6.93
2023-11-02T21:03:43.303Z,6.15
2023-11-02T21:08:47.430Z,6.18
2023-11-02T21:13:49.781Z,6.60
2023-11-02T21:18:52.699Z,6.78
2023-11-02T21:23:54.976Z,6.18
2023-11-02T21:28:57.218Z,5.82
2023-11-02T21:33:59.529Z,6.03
2023-11-02T21:39:01.756Z,5.95
2023-11-02T21:44:04.159Z,6.28
2023-11-02T21:49:06.656Z,6.07
2023-11-02T21:54:09.006Z,5.90
2023-11-02T21:59:12.573Z,5.68
2023-11-02T22:04:14.970Z,5.28
2023-11-02T22:09:17.690Z,5.95
2023-11-02T22:14:20.720Z,6.35
2023-11-02T22:19:23.235Z,4.53
2023-11-02T22:24:26.085Z,4.40
2023-11-02T22:29:28.367Z,5.07
2023-11-02T22:34:31.184Z,5.53
2023-11-02T22:39:33.690Z,4.72
2023-11-02T22:44:36.161Z,4.65
2023-11-02T22:49:39.545Z,5.13
2023-11-02T22:54:41.806Z,4.80
2023-11-02T22:59:44.101Z,5.22
2023-11-02T23:04:46.732Z,5.80
2023-11-02T23:09:49.017Z,5.07
2023-11-02T23:14:51.324Z,5.18
2023-11-02T23:19:53.553Z,5.85
2023-11-02T23:24:55.822Z,5.80
2023-11-02T23:29:59.650Z,6.65
2023-11-02T23:35:01.904Z,5.90
2023-11-02T23:40:05.058Z,5.90
2023-11-02T23:45:07.666Z,6.35
2023-11-02T23:50:09.988Z,6.38
2023-11-02T23:55:12.633Z,6.38
